»·PEaware :: SWA276 KSAN-KSFO

SWA276 :: KSAN-KSFO

FLIGHT INFORMATION

Flight Status: Arrived
Operator:
Southwest Airlines
More flights by this operator :: More flights under this callsign
Pilot: Gareth H. (28072)
Aircraft: BOEING 737-800
(B738)
More flights by this aircraft type
Origin: KSAN San Diego Intl-Lindbergh
United States
Destination: KSFO San Francisco Intl
United States
More flights between these airports :: More routes between these airports
Route: +PADRZ2 IKAYE RIZIN SPLNT STOKD SERFR SERFR4
File this flight plan on PilotEdge
Remarks: PBN / A1B1C1D1S1S2 DOF / 200217 REG / N831OW EET / KZOA0040 SEL / PSAR OPR / SWA PER / C RMK / TCAS
Altitude:
(Current/Filed)
36,000ft
Speed:
(Current/Filed)
442kts
Departed: 17-Feb-20 12:42 PM
Arrived: 17-Feb-20 01:50 PM
Distance/Time
Traveled:
388nm/1:08
Distance/Time
To Go:
Arrived

Flight Plot

Page will automatically refresh every two minutes.

Flight plan parsing failed; only flown route is shown


Map Options




Map Legend


Flown Route
Filed Route
Departure Airport
Arrival Airport
Navaid (VOR, NDB)
Fix

Horizontal Profiles

Position Reports

Time Latitude Longitude Heading Altitude Ground
Speed
17-Feb-20 12:00 32.733262 -117.196044 199 22ft 0kts
17-Feb-20 12:01 32.733262 -117.196044 199 22ft 0kts
17-Feb-20 12:02 32.733262 -117.196044 199 22ft 0kts
17-Feb-20 12:03 32.733262 -117.196044 199 22ft 0kts
17-Feb-20 12:04 32.733262 -117.196044 199 22ft 0kts
17-Feb-20 12:05 32.733262 -117.196044 199 22ft 0kts
17-Feb-20 12:06 32.733262 -117.196044 199 22ft 0kts
17-Feb-20 12:07 32.733262 -117.196044 199 22ft 0kts
17-Feb-20 12:08 32.733262 -117.196044 199 22ft 0kts
17-Feb-20 12:09 32.733262 -117.196044 199 22ft 0kts
17-Feb-20 12:10 32.733262 -117.196044 199 22ft 0kts
17-Feb-20 12:11 32.733262 -117.196044 199 22ft 0kts
17-Feb-20 12:12 32.733262 -117.196044 199 22ft 0kts
17-Feb-20 12:13 32.733262 -117.196044 199 22ft 0kts
17-Feb-20 12:14 32.733262 -117.196044 199 22ft 0kts
17-Feb-20 12:15 32.733262 -117.196044 199 22ft 0kts
17-Feb-20 12:16 32.733262 -117.196044 199 22ft 0kts
17-Feb-20 12:17 32.733262 -117.196044 199 22ft 0kts
17-Feb-20 12:18 32.733262 -117.196044 199 22ft 0kts
17-Feb-20 12:19 32.733262 -117.196044 199 22ft 0kts
17-Feb-20 12:20 32.733262 -117.196044 199 22ft 0kts
17-Feb-20 12:21 32.733262 -117.196044 199 22ft 0kts
17-Feb-20 12:22 32.733262 -117.196043 199 22ft 0kts
17-Feb-20 12:23 32.733262 -117.196043 199 22ft 0kts
17-Feb-20 12:24 32.733262 -117.196043 199 22ft 0kts
17-Feb-20 12:25 32.733314 -117.196021 200 22ft 2kts
17-Feb-20 12:26 32.733833 -117.195847 166 22ft 2kts
17-Feb-20 12:27 32.734108 -117.196186 105 21ft 0kts
17-Feb-20 12:28 32.734108 -117.196186 105 21ft 0kts
17-Feb-20 12:29 32.734108 -117.196186 105 21ft 0kts
17-Feb-20 12:30 32.734108 -117.196186 105 21ft 0kts
17-Feb-20 12:31 32.734108 -117.196186 105 21ft 0kts
17-Feb-20 12:32 32.733768 -117.194807 106 24ft 12kts
17-Feb-20 12:33 32.732399 -117.189151 105 22ft 18kts
17-Feb-20 12:34 32.730958 -117.183222 106 20ft 18kts
17-Feb-20 12:35 32.729700 -117.178039 106 24ft 13kts
17-Feb-20 12:36 32.729502 -117.176751 73 25ft 0kts
17-Feb-20 12:37 32.729502 -117.176751 73 25ft 0kts
17-Feb-20 12:38 32.729502 -117.176751 73 25ft 0kts
17-Feb-20 12:39 32.729502 -117.176751 73 25ft 0kts
17-Feb-20 12:40 32.730148 -117.175805 315 27ft 4kts
17-Feb-20 12:41 32.736860 -117.202836 287 607ft 164kts
17-Feb-20 12:42 32.762556 -117.251555 301 2535ft 220kts
17-Feb-20 12:43 32.798363 -117.316463 307 5693ft 250kts
17-Feb-20 12:44 32.841836 -117.383699 309 9046ft 263kts
17-Feb-20 12:45 32.888989 -117.456848 308 11098ft 313kts
17-Feb-20 12:46 32.944253 -117.542845 306 13781ft 335kts
17-Feb-20 12:47 33.001433 -117.632060 306 16739ft 345kts
17-Feb-20 12:48 33.060714 -117.723842 309 19416ft 357kts
17-Feb-20 12:49 33.137062 -117.804022 316 21777ft 372kts
17-Feb-20 12:50 33.215565 -117.887165 311 23184ft 382kts
17-Feb-20 12:51 33.290709 -117.977225 311 23110ft 378kts
17-Feb-20 12:52 33.366659 -118.067986 311 24969ft 390kts
17-Feb-20 12:53 33.444297 -118.160988 311 26718ft 401kts
17-Feb-20 12:54 33.524103 -118.256840 311 28286ft 411kts
17-Feb-20 12:55 33.605311 -118.354644 311 29702ft 420kts
17-Feb-20 12:56 33.688022 -118.454524 311 31438ft 417kts
17-Feb-20 12:57 33.768632 -118.552177 311 33094ft 412kts
17-Feb-20 12:58 33.849049 -118.649858 310 34686ft 407kts
17-Feb-20 12:59 33.927102 -118.745028 309 35983ft 405kts
17-Feb-20 13:01 34.005765 -118.841116 309 36010ft 400kts
17-Feb-20 13:02 34.084061 -118.937054 309 36011ft 403kts
17-Feb-20 13:03 34.157449 -119.037234 298 36016ft 395kts
17-Feb-20 13:04 34.215072 -119.149692 298 36016ft 395kts
17-Feb-20 13:05 34.273444 -119.263064 298 36004ft 393kts
17-Feb-20 13:06 34.330667 -119.374613 298 36005ft 392kts
17-Feb-20 13:07 34.388112 -119.486917 298 36018ft 392kts
17-Feb-20 13:08 34.457437 -119.589790 310 36021ft 400kts
17-Feb-20 13:09 34.535524 -119.685325 309 36030ft 399kts
17-Feb-20 13:10 34.612502 -119.780299 309 36003ft 399kts
17-Feb-20 13:11 34.690620 -119.876911 309 36010ft 400kts
17-Feb-20 13:12 34.767477 -119.972221 309 36010ft 399kts
17-Feb-20 13:13 34.846109 -120.070026 309 36008ft 395kts
17-Feb-20 13:14 34.923032 -120.165965 309 36043ft 397kts
17-Feb-20 13:15 34.999918 -120.262133 309 36041ft 396kts
17-Feb-20 13:16 35.076903 -120.358712 309 36041ft 398kts
17-Feb-20 13:17 35.157774 -120.451214 312 36042ft 399kts
17-Feb-20 13:18 35.239602 -120.542898 312 36048ft 400kts
17-Feb-20 13:19 35.321350 -120.634799 312 36047ft 400kts
17-Feb-20 13:19 35.389485 -120.711670 312 36058ft 400kts
17-Feb-20 13:21 35.485111 -120.819217 315 36090ft 403kts
17-Feb-20 13:22 35.574685 -120.902702 317 36092ft 404kts
17-Feb-20 13:22 35.648867 -120.971603 317 36091ft 404kts
17-Feb-20 13:23 35.738853 -121.055400 317 36090ft 404kts
17-Feb-20 13:25 35.841892 -121.151643 317 36089ft 400kts
17-Feb-20 13:25 35.916132 -121.221206 317 36088ft 401kts
17-Feb-20 13:26 36.004961 -121.304635 317 36087ft 403kts
17-Feb-20 13:27 36.095764 -121.386179 322 36105ft 406kts
17-Feb-20 13:28 36.192166 -121.461141 322 34623ft 417kts
17-Feb-20 13:29 36.289705 -121.537371 322 31635ft 413kts
17-Feb-20 13:30 36.385553 -121.612521 322 28830ft 402kts
17-Feb-20 13:31 36.477834 -121.685130 322 26273ft 387kts
17-Feb-20 13:32 36.565892 -121.754839 323 23952ft 369kts
17-Feb-20 13:33 36.649488 -121.821011 324 21648ft 355kts
17-Feb-20 13:34 36.732726 -121.885844 332 19355ft 345kts
17-Feb-20 13:35 36.822628 -121.916888 345 17354ft 337kts
17-Feb-20 13:36 36.913869 -121.942250 347 15115ft 332kts
17-Feb-20 13:37 37.001504 -121.972182 343 12894ft 327kts
17-Feb-20 13:38 37.087853 -122.006023 344 10859ft 311kts
17-Feb-20 13:39 37.161501 -122.034826 344 10169ft 252kts
17-Feb-20 13:40 37.228202 -122.060907 344 8967ft 259kts
17-Feb-20 13:41 37.297122 -122.087993 343 7559ft 258kts
17-Feb-20 13:42 37.364665 -122.114629 343 6183ft 254kts
17-Feb-20 13:43 37.429934 -122.137557 345 5208ft 239kts
17-Feb-20 13:44 37.493934 -122.159523 344 3909ft 230kts
17-Feb-20 13:45 37.543857 -122.197510 305 2940ft 199kts
17-Feb-20 13:46 37.569052 -122.257054 300 1847ft 174kts
17-Feb-20 13:47 37.589267 -122.304962 299 998ft 149kts
17-Feb-20 13:48 37.608705 -122.351096 298 198ft 148kts
17-Feb-20 13:49 37.619909 -122.378903 239 31ft 11kts
17-Feb-20 13:50 37.619143 -122.379998 228 33ft 7kts
17-Feb-20 13:51 37.620298 -122.383546 299 34ft 10kts
17-Feb-20 13:52 37.621931 -122.387467 296 33ft 10kts
17-Feb-20 13:53 37.620774 -122.387743 198 33ft 1kts

Navigation Log

Ident Type
Flight plan parsing failed, navigation log unavailable